sensor_id;sensor_type;location;lat;lon;timestamp;P1;durP1;ratioP1;P2;durP2;ratioP2
1591;SDS011;789;51.612;7.510;2023-06-14T00:01:54;6.50;;;5.90;;
1591;SDS011;789;51.612;7.510;2023-06-14T00:04:22;9.37;;;5.50;;
1591;SDS011;789;51.612;7.510;2023-06-14T00:06:50;11.57;;;5.80;;
1591;SDS011;789;51.612;7.510;2023-06-14T00:09:17;7.20;;;5.60;;
1591;SDS011;789;51.612;7.510;2023-06-14T00:11:44;9.17;;;6.00;;
1591;SDS011;789;51.612;7.510;2023-06-14T00:14:11;7.57;;;5.93;;
1591;SDS011;789;51.612;7.510;2023-06-14T00:16:38;9.37;;;5.57;;
1591;SDS011;789;51.612;7.510;2023-06-14T00:19:07;5.60;;;5.10;;
1591;SDS011;789;51.612;7.510;2023-06-14T00:21:36;5.97;;;5.27;;
1591;SDS011;789;51.612;7.510;2023-06-14T00:24:04;6.10;;;5.43;;
1591;SDS011;789;51.612;7.510;2023-06-14T00:26:31;6.10;;;5.13;;
1591;SDS011;789;51.612;7.510;2023-06-14T00:28:57;7.77;;;5.30;;
1591;SDS011;789;51.612;7.510;2023-06-14T00:31:24;6.33;;;5.13;;
1591;SDS011;789;51.612;7.510;2023-06-14T00:33:51;6.13;;;4.90;;
1591;SDS011;789;51.612;7.510;2023-06-14T00:36:17;6.73;;;5.50;;
1591;SDS011;789;51.612;7.510;2023-06-14T00:38:46;5.27;;;4.77;;
1591;SDS011;789;51.612;7.510;2023-06-14T00:41:12;16.30;;;5.70;;
1591;SDS011;789;51.612;7.510;2023-06-14T00:43:39;8.90;;;5.13;;
1591;SDS011;789;51.612;7.510;2023-06-14T00:46:06;5.53;;;4.50;;
1591;SDS011;789;51.612;7.510;2023-06-14T00:48:32;8.30;;;5.10;;
1591;SDS011;789;51.612;7.510;2023-06-14T00:51:00;6.30;;;4.53;;
1591;SDS011;789;51.612;7.510;2023-06-14T00:53:29;5.07;;;4.57;;
1591;SDS011;789;51.612;7.510;2023-06-14T00:56:00;6.30;;;4.57;;
1591;SDS011;789;51.612;7.510;2023-06-14T00:58:27;5.47;;;4.80;;
1591;SDS011;789;51.612;7.510;2023-06-14T01:00:54;5.17;;;4.63;;
1591;SDS011;789;51.612;7.510;2023-06-14T01:03:21;5.63;;;4.57;;
1591;SDS011;789;51.612;7.510;2023-06-14T01:05:48;5.53;;;4.50;;
1591;SDS011;789;51.612;7.510;2023-06-14T01:08:21;7.80;;;4.80;;
1591;SDS011;789;51.612;7.510;2023-06-14T01:10:56;5.33;;;4.70;;
1591;SDS011;789;51.612;7.510;2023-06-14T01:13:31;7.50;;;4.13;;
1591;SDS011;789;51.612;7.510;2023-06-14T01:16:00;4.90;;;4.23;;
1591;SDS011;789;51.612;7.510;2023-06-14T01:18:28;5.37;;;4.87;;
1591;SDS011;789;51.612;7.510;2023-06-14T01:20:55;7.43;;;4.30;;
1591;SDS011;789;51.612;7.510;2023-06-14T01:23:23;4.70;;;4.30;;
1591;SDS011;789;51.612;7.510;2023-06-14T01:25:57;5.30;;;4.40;;
1591;SDS011;789;51.612;7.510;2023-06-14T01:28:25;5.07;;;4.57;;
1591;SDS011;789;51.612;7.510;2023-06-14T01:30:57;6.50;;;4.77;;
1591;SDS011;789;51.612;7.510;2023-06-14T01:33:28;7.17;;;4.37;;
1591;SDS011;789;51.612;7.510;2023-06-14T01:35:55;5.10;;;4.60;;
1591;SDS011;789;51.612;7.510;2023-06-14T01:38:25;4.83;;;3.83;;
1591;SDS011;789;51.612;7.510;2023-06-14T01:40:53;5.40;;;4.83;;
1591;SDS011;789;51.612;7.510;2023-06-14T01:43:22;7.67;;;4.37;;
1591;SDS011;789;51.612;7.510;2023-06-14T01:45:50;5.63;;;4.10;;
1591;SDS011;789;51.612;7.510;2023-06-14T01:48:20;8.67;;;4.50;;
1591;SDS011;789;51.612;7.510;2023-06-14T01:50:50;6.47;;;3.93;;
1591;SDS011;789;51.612;7.510;2023-06-14T01:53:17;4.83;;;4.33;;
1591;SDS011;789;51.612;7.510;2023-06-14T01:55:46;4.90;;;3.73;;
1591;SDS011;789;51.612;7.510;2023-06-14T01:58:13;9.70;;;4.67;;
1591;SDS011;789;51.612;7.510;2023-06-14T02:00:42;6.60;;;4.40;;
1591;SDS011;789;51.612;7.510;2023-06-14T02:03:10;5.03;;;4.60;;
1591;SDS011;789;51.612;7.510;2023-06-14T02:05:37;8.30;;;4.53;;
1591;SDS011;789;51.612;7.510;2023-06-14T02:08:04;7.63;;;4.70;;
1591;SDS011;789;51.612;7.510;2023-06-14T02:10:31;4.90;;;4.50;;
1591;SDS011;789;51.612;7.510;2023-06-14T02:12:59;6.00;;;4.23;;
1591;SDS011;789;51.612;7.510;2023-06-14T02:15:26;6.17;;;4.90;;
1591;SDS011;789;51.612;7.510;2023-06-14T02:17:58;4.70;;;4.20;;
1591;SDS011;789;51.612;7.510;2023-06-14T02:20:26;8.23;;;4.60;;
1591;SDS011;789;51.612;7.510;2023-06-14T02:22:53;6.00;;;4.80;;
1591;SDS011;789;51.612;7.510;2023-06-14T02:25:20;5.73;;;3.70;;
1591;SDS011;789;51.612;7.510;2023-06-14T02:27:46;12.23;;;5.00;;
1591;SDS011;789;51.612;7.510;2023-06-14T02:30:14;4.53;;;4.10;;
1591;SDS011;789;51.612;7.510;2023-06-14T02:32:41;4.90;;;4.40;;
1591;SDS011;789;51.612;7.510;2023-06-14T02:35:08;6.47;;;4.80;;
1591;SDS011;789;51.612;7.510;2023-06-14T02:37:35;6.50;;;4.67;;
1591;SDS011;789;51.612;7.510;2023-06-14T02:40:02;4.73;;;4.33;;
1591;SDS011;789;51.612;7.510;2023-06-14T02:42:30;5.53;;;4.60;;
1591;SDS011;789;51.612;7.510;2023-06-14T02:44:57;5.10;;;4.60;;
1591;SDS011;789;51.612;7.510;2023-06-14T02:47:26;5.70;;;4.50;;
1591;SDS011;789;51.612;7.510;2023-06-14T02:49:52;5.00;;;4.40;;
1591;SDS011;789;51.612;7.510;2023-06-14T02:52:19;6.40;;;4.53;;
1591;SDS011;789;51.612;7.510;2023-06-14T02:54:46;8.23;;;4.67;;
1591;SDS011;789;51.612;7.510;2023-06-14T02:57:13;6.47;;;3.93;;
1591;SDS011;789;51.612;7.510;2023-06-14T02:59:40;9.37;;;4.20;;
1591;SDS011;789;51.612;7.510;2023-06-14T03:02:07;7.10;;;4.30;;
1591;SDS011;789;51.612;7.510;2023-06-14T03:04:35;4.77;;;4.37;;
1591;SDS011;789;51.612;7.510;2023-06-14T03:07:03;4.80;;;4.20;;
1591;SDS011;789;51.612;7.510;2023-06-14T03:09:34;5.87;;;4.20;;
1591;SDS011;789;51.612;7.510;2023-06-14T03:12:01;5.90;;;3.80;;
1591;SDS011;789;51.612;7.510;2023-06-14T03:14:28;4.80;;;4.40;;
1591;SDS011;789;51.612;7.510;2023-06-14T03:16:55;6.63;;;4.47;;
1591;SDS011;789;51.612;7.510;2023-06-14T03:19:22;25.97;;;7.93;;
1591;SDS011;789;51.612;7.510;2023-06-14T03:21:51;6.07;;;4.43;;
1591;SDS011;789;51.612;7.510;2023-06-14T03:24:18;7.83;;;4.90;;
1591;SDS011;789;51.612;7.510;2023-06-14T03:26:45;5.30;;;4.73;;
1591;SDS011;789;51.612;7.510;2023-06-14T03:29:12;7.07;;;4.33;;
1591;SDS011;789;51.612;7.510;2023-06-14T03:31:41;6.17;;;4.43;;
1591;SDS011;789;51.612;7.510;2023-06-14T03:34:23;5.50;;;4.60;;
1591;SDS011;789;51.612;7.510;2023-06-14T03:36:51;4.63;;;4.10;;
1591;SDS011;789;51.612;7.510;2023-06-14T03:39:18;13.90;;;4.90;;
1591;SDS011;789;51.612;7.510;2023-06-14T03:41:45;5.47;;;4.33;;
1591;SDS011;789;51.612;7.510;2023-06-14T03:44:13;6.23;;;5.07;;
1591;SDS011;789;51.612;7.510;2023-06-14T03:46:42;4.80;;;4.30;;
1591;SDS011;789;51.612;7.510;2023-06-14T03:49:09;8.57;;;4.50;;
1591;SDS011;789;51.612;7.510;2023-06-14T03:51:36;4.53;;;3.80;;
1591;SDS011;789;51.612;7.510;2023-06-14T03:54:06;4.23;;;3.80;;
1591;SDS011;789;51.612;7.510;2023-06-14T03:56:32;6.00;;;4.60;;
1591;SDS011;789;51.612;7.510;2023-06-14T03:59:00;7.47;;;4.50;;
1591;SDS011;789;51.612;7.510;2023-06-14T04:01:27;7.23;;;4.20;;
1591;SDS011;789;51.612;7.510;2023-06-14T04:03:55;9.20;;;4.53;;
1591;SDS011;789;51.612;7.510;2023-06-14T04:06:23;5.87;;;4.07;;
1591;SDS011;789;51.612;7.510;2023-06-14T04:08:57;8.90;;;4.50;;
1591;SDS011;789;51.612;7.510;2023-06-14T04:11:30;6.07;;;4.50;;
1591;SDS011;789;51.612;7.510;2023-06-14T04:13:57;15.27;;;4.60;;
1591;SDS011;789;51.612;7.510;2023-06-14T04:16:24;7.33;;;4.30;;
1591;SDS011;789;51.612;7.510;2023-06-14T04:18:51;5.53;;;4.20;;
1591;SDS011;789;51.612;7.510;2023-06-14T04:21:18;6.43;;;4.77;;
1591;SDS011;789;51.612;7.510;2023-06-14T04:23:45;8.43;;;5.20;;
1591;SDS011;789;51.612;7.510;2023-06-14T04:26:11;7.80;;;3.73;;
1591;SDS011;789;51.612;7.510;2023-06-14T04:28:40;5.20;;;3.90;;
1591;SDS011;789;51.612;7.510;2023-06-14T04:31:07;8.20;;;4.53;;
1591;SDS011;789;51.612;7.510;2023-06-14T04:33:34;9.20;;;5.00;;
1591;SDS011;789;51.612;7.510;2023-06-14T04:36:09;5.43;;;4.23;;
1591;SDS011;789;51.612;7.510;2023-06-14T04:38:36;7.63;;;4.90;;
1591;SDS011;789;51.612;7.510;2023-06-14T04:41:06;6.00;;;4.83;;
1591;SDS011;789;51.612;7.510;2023-06-14T04:43:36;7.57;;;4.23;;
1591;SDS011;789;51.612;7.510;2023-06-14T04:46:04;7.07;;;4.00;;
1591;SDS011;789;51.612;7.510;2023-06-14T04:48:34;5.93;;;4.40;;
1591;SDS011;789;51.612;7.510;2023-06-14T04:51:01;6.03;;;4.70;;
1591;SDS011;789;51.612;7.510;2023-06-14T04:53:28;5.77;;;4.37;;
1591;SDS011;789;51.612;7.510;2023-06-14T04:55:57;7.53;;;4.37;;
1591;SDS011;789;51.612;7.510;2023-06-14T04:58:25;13.33;;;5.03;;
1591;SDS011;789;51.612;7.510;2023-06-14T05:00:52;6.77;;;4.00;;
1591;SDS011;789;51.612;7.510;2023-06-14T05:03:22;7.13;;;4.00;;
1591;SDS011;789;51.612;7.510;2023-06-14T05:05:49;5.33;;;3.77;;
1591;SDS011;789;51.612;7.510;2023-06-14T05:08:18;8.10;;;4.47;;
1591;SDS011;789;51.612;7.510;2023-06-14T05:10:45;14.30;;;4.10;;
1591;SDS011;789;51.612;7.510;2023-06-14T05:13:11;5.50;;;4.37;;
1591;SDS011;789;51.612;7.510;2023-06-14T05:15:38;12.30;;;4.77;;
1591;SDS011;789;51.612;7.510;2023-06-14T05:18:05;5.00;;;4.40;;
1591;SDS011;789;51.612;7.510;2023-06-14T05:20:35;6.50;;;4.30;;
1591;SDS011;789;51.612;7.510;2023-06-14T05:23:03;14.73;;;4.70;;
1591;SDS011;789;51.612;7.510;2023-06-14T05:25:30;6.43;;;4.07;;
1591;SDS011;789;51.612;7.510;2023-06-14T05:27:57;6.40;;;4.10;;
1591;SDS011;789;51.612;7.510;2023-06-14T05:30:24;8.60;;;4.20;;
1591;SDS011;789;51.612;7.510;2023-06-14T05:32:55;8.13;;;4.00;;
1591;SDS011;789;51.612;7.510;2023-06-14T05:35:22;5.07;;;4.00;;
1591;SDS011;789;51.612;7.510;2023-06-14T05:37:53;5.67;;;4.17;;
1591;SDS011;789;51.612;7.510;2023-06-14T05:40:21;4.57;;;3.83;;
1591;SDS011;789;51.612;7.510;2023-06-14T05:42:48;7.07;;;4.17;;
1591;SDS011;789;51.612;7.510;2023-06-14T05:45:15;6.87;;;4.10;;
1591;SDS011;789;51.612;7.510;2023-06-14T05:47:42;6.63;;;4.77;;
1591;SDS011;789;51.612;7.510;2023-06-14T05:50:11;7.80;;;4.37;;
1591;SDS011;789;51.612;7.510;2023-06-14T05:52:37;5.70;;;3.97;;
1591;SDS011;789;51.612;7.510;2023-06-14T05:55:06;4.90;;;4.20;;
1591;SDS011;789;51.612;7.510;2023-06-14T05:57:34;10.10;;;4.27;;
1591;SDS011;789;51.612;7.510;2023-06-14T06:00:00;5.13;;;4.13;;
1591;SDS011;789;51.612;7.510;2023-06-14T06:02:30;7.83;;;4.23;;
1591;SDS011;789;51.612;7.510;2023-06-14T06:04:57;10.23;;;4.40;;
1591;SDS011;789;51.612;7.510;2023-06-14T06:07:24;9.67;;;4.80;;
1591;SDS011;789;51.612;7.510;2023-06-14T06:09:51;9.00;;;3.90;;
1591;SDS011;789;51.612;7.510;2023-06-14T06:12:21;11.70;;;4.40;;
1591;SDS011;789;51.612;7.510;2023-06-14T06:14:48;9.60;;;4.70;;
1591;SDS011;789;51.612;7.510;2023-06-14T06:17:15;5.50;;;3.80;;
1591;SDS011;789;51.612;7.510;2023-06-14T06:19:41;7.27;;;4.20;;
1591;SDS011;789;51.612;7.510;2023-06-14T06:22:11;4.13;;;3.73;;
1591;SDS011;789;51.612;7.510;2023-06-14T06:24:39;7.77;;;4.03;;
1591;SDS011;789;51.612;7.510;2023-06-14T06:27:09;7.77;;;4.17;;
1591;SDS011;789;51.612;7.510;2023-06-14T06:29:38;35.93;;;6.13;;
1591;SDS011;789;51.612;7.510;2023-06-14T06:32:09;8.53;;;3.83;;
1591;SDS011;789;51.612;7.510;2023-06-14T06:34:36;7.30;;;3.90;;
1591;SDS011;789;51.612;7.510;2023-06-14T06:37:03;5.67;;;4.00;;
1591;SDS011;789;51.612;7.510;2023-06-14T06:39:31;8.80;;;4.20;;
1591;SDS011;789;51.612;7.510;2023-06-14T06:41:57;15.67;;;4.50;;
1591;SDS011;789;51.612;7.510;2023-06-14T06:44:24;5.63;;;4.03;;
1591;SDS011;789;51.612;7.510;2023-06-14T06:46:52;6.17;;;3.80;;
1591;SDS011;789;51.612;7.510;2023-06-14T06:49:19;7.33;;;4.00;;
1591;SDS011;789;51.612;7.510;2023-06-14T06:51:56;4.50;;;4.00;;
1591;SDS011;789;51.612;7.510;2023-06-14T06:54:26;7.73;;;4.27;;
1591;SDS011;789;51.612;7.510;2023-06-14T06:56:53;5.10;;;4.00;;
1591;SDS011;789;51.612;7.510;2023-06-14T06:59:20;5.47;;;3.80;;
1591;SDS011;789;51.612;7.510;2023-06-14T07:01:53;11.47;;;3.43;;
1591;SDS011;789;51.612;7.510;2023-06-14T07:04:24;5.87;;;3.43;;
1591;SDS011;789;51.612;7.510;2023-06-14T07:07:00;4.10;;;3.60;;
1591;SDS011;789;51.612;7.510;2023-06-14T07:09:30;7.20;;;4.40;;
1591;SDS011;789;51.612;7.510;2023-06-14T07:11:57;3.80;;;3.50;;
1591;SDS011;789;51.612;7.510;2023-06-14T07:14:24;6.63;;;3.97;;
1591;SDS011;789;51.612;7.510;2023-06-14T07:16:53;8.70;;;4.20;;
1591;SDS011;789;51.612;7.510;2023-06-14T07:19:39;6.30;;;4.07;;
1591;SDS011;789;51.612;7.510;2023-06-14T07:22:19;8.27;;;3.57;;
1591;SDS011;789;51.612;7.510;2023-06-14T07:24:46;5.90;;;3.53;;
1591;SDS011;789;51.612;7.510;2023-06-14T07:27:15;7.90;;;3.53;;
1591;SDS011;789;51.612;7.510;2023-06-14T07:29:43;8.20;;;3.93;;
1591;SDS011;789;51.612;7.510;2023-06-14T07:32:16;6.10;;;3.50;;
1591;SDS011;789;51.612;7.510;2023-06-14T07:34:58;9.50;;;3.90;;
1591;SDS011;789;51.612;7.510;2023-06-14T07:37:28;5.03;;;3.70;;
1591;SDS011;789;51.612;7.510;2023-06-14T07:39:55;3.53;;;3.13;;
1591;SDS011;789;51.612;7.510;2023-06-14T07:42:22;4.37;;;3.47;;
1591;SDS011;789;51.612;7.510;2023-06-14T07:44:50;3.77;;;2.90;;
1591;SDS011;789;51.612;7.510;2023-06-14T07:47:18;3.33;;;2.50;;
1591;SDS011;789;51.612;7.510;2023-06-14T07:49:45;3.03;;;2.30;;
1591;SDS011;789;51.612;7.510;2023-06-14T07:52:14;3.03;;;2.70;;
1591;SDS011;789;51.612;7.510;2023-06-14T07:54:42;3.43;;;2.43;;
1591;SDS011;789;51.612;7.510;2023-06-14T07:57:09;5.63;;;2.43;;
1591;SDS011;789;51.612;7.510;2023-06-14T07:59:39;2.47;;;2.00;;
1591;SDS011;789;51.612;7.510;2023-06-14T08:02:06;4.87;;;2.50;;
1591;SDS011;789;51.612;7.510;2023-06-14T08:04:34;3.13;;;2.20;;
1591;SDS011;789;51.612;7.510;2023-06-14T08:07:04;4.87;;;2.30;;
1591;SDS011;789;51.612;7.510;2023-06-14T08:09:30;3.03;;;2.00;;
1591;SDS011;789;51.612;7.510;2023-06-14T08:11:57;3.50;;;2.10;;
1591;SDS011;789;51.612;7.510;2023-06-14T08:14:25;2.83;;;2.27;;
1591;SDS011;789;51.612;7.510;2023-06-14T08:16:52;3.17;;;2.40;;
1591;SDS011;789;51.612;7.510;2023-06-14T08:19:18;6.50;;;2.47;;
1591;SDS011;789;51.612;7.510;2023-06-14T08:21:47;4.10;;;2.10;;
1591;SDS011;789;51.612;7.510;2023-06-14T08:24:14;3.77;;;2.13;;
1591;SDS011;789;51.612;7.510;2023-06-14T08:26:40;4.57;;;1.90;;
1591;SDS011;789;51.612;7.510;2023-06-14T08:29:09;10.60;;;3.17;;
1591;SDS011;789;51.612;7.510;2023-06-14T08:31:38;8.40;;;2.20;;
1591;SDS011;789;51.612;7.510;2023-06-14T08:34:07;5.00;;;2.00;;
1591;SDS011;789;51.612;7.510;2023-06-14T08:36:43;5.10;;;2.03;;
1591;SDS011;789;51.612;7.510;2023-06-14T08:39:11;2.50;;;2.17;;
1591;SDS011;789;51.612;7.510;2023-06-14T08:41:40;3.83;;;1.90;;
1591;SDS011;789;51.612;7.510;2023-06-14T08:44:06;2.87;;;1.70;;
1591;SDS011;789;51.612;7.510;2023-06-14T08:46:33;3.20;;;1.90;;
1591;SDS011;789;51.612;7.510;2023-06-14T08:49:02;4.23;;;1.90;;
1591;SDS011;789;51.612;7.510;2023-06-14T08:51:31;5.13;;;2.00;;
1591;SDS011;789;51.612;7.510;2023-06-14T08:54:01;4.67;;;1.70;;
1591;SDS011;789;51.612;7.510;2023-06-14T08:56:30;4.40;;;1.73;;
1591;SDS011;789;51.612;7.510;2023-06-14T08:58:59;6.23;;;2.17;;
1591;SDS011;789;51.612;7.510;2023-06-14T09:01:27;2.07;;;1.70;;
1591;SDS011;789;51.612;7.510;2023-06-14T09:03:56;2.30;;;1.47;;
1591;SDS011;789;51.612;7.510;2023-06-14T09:06:23;3.23;;;1.30;;
1591;SDS011;789;51.612;7.510;2023-06-14T09:08:50;4.63;;;1.73;;
1591;SDS011;789;51.612;7.510;2023-06-14T09:11:17;5.30;;;1.70;;
1591;SDS011;789;51.612;7.510;2023-06-14T09:13:46;8.63;;;1.73;;
1591;SDS011;789;51.612;7.510;2023-06-14T09:16:13;3.00;;;1.60;;
1591;SDS011;789;51.612;7.510;2023-06-14T09:18:41;5.17;;;2.20;;
1591;SDS011;789;51.612;7.510;2023-06-14T09:21:09;2.83;;;1.50;;
1591;SDS011;789;51.612;7.510;2023-06-14T09:23:37;3.20;;;1.40;;
1591;SDS011;789;51.612;7.510;2023-06-14T09:26:08;5.13;;;1.60;;
1591;SDS011;789;51.612;7.510;2023-06-14T09:28:35;4.70;;;2.00;;
1591;SDS011;789;51.612;7.510;2023-06-14T09:31:04;3.67;;;1.60;;
1591;SDS011;789;51.612;7.510;2023-06-14T09:33:33;3.30;;;1.50;;
1591;SDS011;789;51.612;7.510;2023-06-14T09:36:00;7.87;;;2.10;;
1591;SDS011;789;51.612;7.510;2023-06-14T09:38:36;2.20;;;1.53;;
1591;SDS011;789;51.612;7.510;2023-06-14T09:41:06;6.03;;;1.90;;
1591;SDS011;789;51.612;7.510;2023-06-14T09:43:33;7.40;;;2.40;;
1591;SDS011;789;51.612;7.510;2023-06-14T09:46:00;2.13;;;1.80;;
1591;SDS011;789;51.612;7.510;2023-06-14T09:48:29;2.70;;;1.93;;
1591;SDS011;789;51.612;7.510;2023-06-14T09:50:56;3.13;;;2.40;;
1591;SDS011;789;51.612;7.510;2023-06-14T09:53:24;3.43;;;2.20;;
1591;SDS011;789;51.612;7.510;2023-06-14T09:55:52;1.90;;;1.67;;
1591;SDS011;789;51.612;7.510;2023-06-14T09:58:20;2.80;;;2.10;;
1591;SDS011;789;51.612;7.510;2023-06-14T10:00:52;3.40;;;1.83;;
1591;SDS011;789;51.612;7.510;2023-06-14T10:03:21;5.23;;;1.87;;
1591;SDS011;789;51.612;7.510;2023-06-14T10:05:55;3.13;;;1.60;;
1591;SDS011;789;51.612;7.510;2023-06-14T10:08:27;4.00;;;1.97;;
1591;SDS011;789;51.612;7.510;2023-06-14T10:10:58;3.93;;;2.20;;
1591;SDS011;789;51.612;7.510;2023-06-14T10:13:25;2.73;;;1.60;;
1591;SDS011;789;51.612;7.510;2023-06-14T10:15:54;3.40;;;1.83;;
1591;SDS011;789;51.612;7.510;2023-06-14T10:18:30;2.10;;;1.77;;
1591;SDS011;789;51.612;7.510;2023-06-14T10:21:08;3.53;;;2.60;;
1591;SDS011;789;51.612;7.510;2023-06-14T10:23:46;3.57;;;2.00;;
1591;SDS011;789;51.612;7.510;2023-06-14T10:26:18;2.30;;;2.10;;
1591;SDS011;789;51.612;7.510;2023-06-14T10:28:55;2.70;;;2.00;;
1591;SDS011;789;51.612;7.510;2023-06-14T10:31:24;5.20;;;1.90;;
1591;SDS011;789;51.612;7.510;2023-06-14T10:34:07;11.00;;;2.40;;
1591;SDS011;789;51.612;7.510;2023-06-14T10:36:35;5.43;;;2.10;;
1591;SDS011;789;51.612;7.510;2023-06-14T10:39:06;7.83;;;2.00;;
1591;SDS011;789;51.612;7.510;2023-06-14T10:41:37;4.47;;;1.67;;
1591;SDS011;789;51.612;7.510;2023-06-14T10:46:58;5.70;;;1.90;;
1591;SDS011;789;51.612;7.510;2023-06-14T10:49:36;2.37;;;2.10;;
1591;SDS011;789;51.612;7.510;2023-06-14T10:52:09;5.00;;;2.53;;
1591;SDS011;789;51.612;7.510;2023-06-14T10:55:06;2.23;;;2.03;;
1591;SDS011;789;51.612;7.510;2023-06-14T10:57:39;3.87;;;2.70;;
1591;SDS011;789;51.612;7.510;2023-06-14T11:00:09;4.40;;;2.87;;
1591;SDS011;789;51.612;7.510;2023-06-14T11:02:51;3.00;;;2.20;;
1591;SDS011;789;51.612;7.510;2023-06-14T11:05:41;2.93;;;2.40;;
1591;SDS011;789;51.612;7.510;2023-06-14T11:08:23;2.97;;;2.77;;
1591;SDS011;789;51.612;7.510;2023-06-14T11:10:58;2.77;;;2.57;;
1591;SDS011;789;51.612;7.510;2023-06-14T11:13:26;11.37;;;2.67;;
1591;SDS011;789;51.612;7.510;2023-06-14T11:15:53;3.70;;;2.60;;
1591;SDS011;789;51.612;7.510;2023-06-14T11:18:22;7.40;;;2.70;;
1591;SDS011;789;51.612;7.510;2023-06-14T11:20:52;3.30;;;2.50;;
1591;SDS011;789;51.612;7.510;2023-06-14T11:23:21;5.10;;;2.47;;
1591;SDS011;789;51.612;7.510;2023-06-14T11:25:49;5.00;;;2.53;;
1591;SDS011;789;51.612;7.510;2023-06-14T11:28:17;4.33;;;2.83;;
1591;SDS011;789;51.612;7.510;2023-06-14T11:30:46;3.77;;;2.83;;
1591;SDS011;789;51.612;7.510;2023-06-14T11:33:16;5.97;;;2.63;;
1591;SDS011;789;51.612;7.510;2023-06-14T11:35:46;4.10;;;3.10;;
1591;SDS011;789;51.612;7.510;2023-06-14T11:38:13;8.17;;;2.80;;
1591;SDS011;789;51.612;7.510;2023-06-14T11:40:41;5.40;;;3.27;;
1591;SDS011;789;51.612;7.510;2023-06-14T11:43:08;7.40;;;3.20;;
1591;SDS011;789;51.612;7.510;2023-06-14T11:45:35;5.20;;;3.10;;
1591;SDS011;789;51.612;7.510;2023-06-14T11:48:02;6.13;;;3.23;;
1591;SDS011;789;51.612;7.510;2023-06-14T11:50:29;2.83;;;2.63;;
1591;SDS011;789;51.612;7.510;2023-06-14T11:52:55;3.80;;;2.60;;
1591;SDS011;789;51.612;7.510;2023-06-14T11:55:24;4.10;;;3.17;;
1591;SDS011;789;51.612;7.510;2023-06-14T11:57:55;4.83;;;3.50;;
1591;SDS011;789;51.612;7.510;2023-06-14T12:00:24;5.33;;;2.77;;
1591;SDS011;789;51.612;7.510;2023-06-14T12:02:52;3.40;;;2.80;;
1591;SDS011;789;51.612;7.510;2023-06-14T12:05:20;11.23;;;3.43;;
1591;SDS011;789;51.612;7.510;2023-06-14T12:07:47;5.33;;;3.50;;
1591;SDS011;789;51.612;7.510;2023-06-14T12:10:15;4.43;;;2.83;;
1591;SDS011;789;51.612;7.510;2023-06-14T12:12:47;8.30;;;2.97;;
1591;SDS011;789;51.612;7.510;2023-06-14T12:15:15;3.87;;;2.80;;
1591;SDS011;789;51.612;7.510;2023-06-14T12:17:43;4.07;;;2.90;;
1591;SDS011;789;51.612;7.510;2023-06-14T12:20:11;13.47;;;3.30;;
1591;SDS011;789;51.612;7.510;2023-06-14T12:22:46;8.77;;;3.17;;
1591;SDS011;789;51.612;7.510;2023-06-14T12:25:23;4.10;;;3.17;;
1591;SDS011;789;51.612;7.510;2023-06-14T12:27:53;4.00;;;3.20;;
1591;SDS011;789;51.612;7.510;2023-06-14T12:30:21;5.63;;;3.33;;
1591;SDS011;789;51.612;7.510;2023-06-14T12:32:48;3.53;;;3.13;;
1591;SDS011;789;51.612;7.510;2023-06-14T12:35:16;3.57;;;2.93;;
1591;SDS011;789;51.612;7.510;2023-06-14T12:37:48;4.00;;;3.20;;
1591;SDS011;789;51.612;7.510;2023-06-14T12:40:15;4.93;;;3.13;;
1591;SDS011;789;51.612;7.510;2023-06-14T12:42:42;3.73;;;3.43;;
1591;SDS011;789;51.612;7.510;2023-06-14T12:45:12;9.97;;;3.50;;
1591;SDS011;789;51.612;7.510;2023-06-14T12:47:41;8.73;;;3.97;;
1591;SDS011;789;51.612;7.510;2023-06-14T12:50:07;6.67;;;3.43;;
1591;SDS011;789;51.612;7.510;2023-06-14T12:52:34;5.30;;;3.40;;
1591;SDS011;789;51.612;7.510;2023-06-14T12:55:02;3.53;;;3.20;;
1591;SDS011;789;51.612;7.510;2023-06-14T12:57:29;3.40;;;3.10;;
1591;SDS011;789;51.612;7.510;2023-06-14T12:59:56;5.87;;;3.50;;
1591;SDS011;789;51.612;7.510;2023-06-14T13:02:23;3.80;;;3.50;;
1591;SDS011;789;51.612;7.510;2023-06-14T13:04:52;4.33;;;3.50;;
1591;SDS011;789;51.612;7.510;2023-06-14T13:07:20;9.80;;;4.10;;
1591;SDS011;789;51.612;7.510;2023-06-14T13:09:47;7.97;;;3.47;;
1591;SDS011;789;51.612;7.510;2023-06-14T13:12:14;9.23;;;3.27;;
1591;SDS011;789;51.612;7.510;2023-06-14T13:14:41;4.53;;;3.20;;
1591;SDS011;789;51.612;7.510;2023-06-14T13:17:10;8.40;;;4.07;;
1591;SDS011;789;51.612;7.510;2023-06-14T13:19:37;7.17;;;3.00;;
1591;SDS011;789;51.612;7.510;2023-06-14T13:22:05;3.67;;;3.37;;
1591;SDS011;789;51.612;7.510;2023-06-14T13:24:32;4.50;;;3.50;;
1591;SDS011;789;51.612;7.510;2023-06-14T13:27:00;6.23;;;3.63;;
1591;SDS011;789;51.612;7.510;2023-06-14T13:29:27;6.47;;;3.80;;
1591;SDS011;789;51.612;7.510;2023-06-14T13:31:55;3.70;;;3.40;;
1591;SDS011;789;51.612;7.510;2023-06-14T13:34:25;5.27;;;3.43;;
1591;SDS011;789;51.612;7.510;2023-06-14T13:36:52;6.23;;;3.20;;
1591;SDS011;789;51.612;7.510;2023-06-14T13:39:21;7.70;;;3.60;;
1591;SDS011;789;51.612;7.510;2023-06-14T13:41:48;9.40;;;3.50;;
1591;SDS011;789;51.612;7.510;2023-06-14T13:44:15;3.30;;;3.00;;
1591;SDS011;789;51.612;7.510;2023-06-14T13:46:45;5.90;;;4.13;;
1591;SDS011;789;51.612;7.510;2023-06-14T13:49:12;3.60;;;3.30;;
1591;SDS011;789;51.612;7.510;2023-06-14T13:51:39;4.77;;;3.50;;
1591;SDS011;789;51.612;7.510;2023-06-14T13:54:05;7.53;;;4.20;;
1591;SDS011;789;51.612;7.510;2023-06-14T13:56:36;5.40;;;3.97;;
1591;SDS011;789;51.612;7.510;2023-06-14T13:59:03;8.50;;;3.50;;
1591;SDS011;789;51.612;7.510;2023-06-14T14:01:30;8.70;;;3.67;;
1591;SDS011;789;51.612;7.510;2023-06-14T14:03:56;6.77;;;4.23;;
1591;SDS011;789;51.612;7.510;2023-06-14T14:06:25;10.07;;;3.57;;
1591;SDS011;789;51.612;7.510;2023-06-14T14:08:58;4.03;;;3.33;;
1591;SDS011;789;51.612;7.510;2023-06-14T14:11:25;7.80;;;3.60;;
1591;SDS011;789;51.612;7.510;2023-06-14T14:13:54;3.80;;;3.23;;
1591;SDS011;789;51.612;7.510;2023-06-14T14:16:23;5.83;;;3.70;;
1591;SDS011;789;51.612;7.510;2023-06-14T14:18:49;5.60;;;3.77;;
1591;SDS011;789;51.612;7.510;2023-06-14T14:21:16;4.53;;;3.40;;
1591;SDS011;789;51.612;7.510;2023-06-14T14:23:43;3.70;;;3.20;;
1591;SDS011;789;51.612;7.510;2023-06-14T14:26:10;4.60;;;3.67;;
1591;SDS011;789;51.612;7.510;2023-06-14T14:28:37;3.93;;;3.30;;
1591;SDS011;789;51.612;7.510;2023-06-14T14:31:05;5.10;;;3.57;;
1591;SDS011;789;51.612;7.510;2023-06-14T14:33:32;4.70;;;2.70;;
1591;SDS011;789;51.612;7.510;2023-06-14T14:36:00;5.07;;;3.30;;
1591;SDS011;789;51.612;7.510;2023-06-14T14:38:29;3.50;;;3.20;;
1591;SDS011;789;51.612;7.510;2023-06-14T14:40:55;3.43;;;3.13;;
1591;SDS011;789;51.612;7.510;2023-06-14T14:43:22;5.07;;;3.63;;
1591;SDS011;789;51.612;7.510;2023-06-14T14:45:49;3.47;;;3.17;;
1591;SDS011;789;51.612;7.510;2023-06-14T14:48:17;3.83;;;3.47;;
1591;SDS011;789;51.612;7.510;2023-06-14T14:50:44;5.53;;;3.70;;
1591;SDS011;789;51.612;7.510;2023-06-14T14:53:11;11.03;;;8.00;;
1591;SDS011;789;51.612;7.510;2023-06-14T14:55:41;5.20;;;2.83;;
1591;SDS011;789;51.612;7.510;2023-06-14T14:58:11;3.23;;;2.90;;
1591;SDS011;789;51.612;7.510;2023-06-14T15:00:42;7.53;;;3.20;;
1591;SDS011;789;51.612;7.510;2023-06-14T15:03:09;4.77;;;3.80;;
1591;SDS011;789;51.612;7.510;2023-06-14T15:05:37;3.03;;;2.83;;
1591;SDS011;789;51.612;7.510;2023-06-14T15:08:04;3.43;;;3.13;;
1591;SDS011;789;51.612;7.510;2023-06-14T15:10:36;4.00;;;3.30;;
1591;SDS011;789;51.612;7.510;2023-06-14T15:13:05;3.63;;;3.33;;
1591;SDS011;789;51.612;7.510;2023-06-14T15:15:32;3.77;;;3.43;;
1591;SDS011;789;51.612;7.510;2023-06-14T15:17:58;6.17;;;3.67;;
1591;SDS011;789;51.612;7.510;2023-06-14T15:20:27;9.13;;;3.30;;
1591;SDS011;789;51.612;7.510;2023-06-14T15:22:55;3.97;;;3.23;;
1591;SDS011;789;51.612;7.510;2023-06-14T15:25:24;5.07;;;3.80;;
1591;SDS011;789;51.612;7.510;2023-06-14T15:27:51;3.50;;;3.20;;
1591;SDS011;789;51.612;7.510;2023-06-14T15:30:18;3.53;;;3.23;;
1591;SDS011;789;51.612;7.510;2023-06-14T15:32:44;4.70;;;3.70;;
1591;SDS011;789;51.612;7.510;2023-06-14T15:35:14;4.17;;;3.00;;
1591;SDS011;789;51.612;7.510;2023-06-14T15:37:42;3.50;;;3.20;;
1591;SDS011;789;51.612;7.510;2023-06-14T15:40:11;4.10;;;3.33;;
1591;SDS011;789;51.612;7.510;2023-06-14T15:42:38;5.10;;;3.53;;